Pagrindinis puslapis
METAR-TAF:

METAR-TAF

Oro uostai :

Fitchburg, Masačusetsas, Jungtinės Amerikos Valstijos

platuma: 42-33-07N, ilguma: 071-45-21W, Aukštis: 106 m

Dabartinis oras

Ataskaita buvo paskelbta 36 minutes, ne 06:52 UTC
Vėjas 7 kt iš Vakarų su gūsio iki 21 kt
Temperatūra -2°C
Drėgmė 36%
Slėgis 1004 hPa
Matomumas: 16.1 km
Apsiniaukę ne aukštis 6000 ft

METAR: KFIT 280652Z AUTO 26007G21KT 10SM OVC060 M02/M15 A2966 RMK AO2 SLP047 T10221150

Laikas: 02:28 (07:28 UTC)


TAF: trūkstamas

Orai ataskaitas ir orų prognozės (METAR, TAF).

turimą stotys yra geltonos ir raudonos taškus žemėlapyje.

Perkelti pele per norėdami pamatyti stoties vardą.

Tada spustelėkite, norėdami matyti oro stebėjimo ir prognozės.

Norėdami pakeisti žemėlapį: spustelėkite ant žalios mygtukų su juodo kryžiaus žemyn,; žalią mygtuką su brūkšneliu, jei norite nutolinti; arba žalių rodyklių gretimoms žemėlapius.


METAR-TAF: